Time;durP1;ratioP1;P1;durP2;ratioP2;P2;SDS_P1;SDS_P2;PMS_P1;PMS_P2;Temp;Humidity;BMP_temperature;BMP_pressure;BME280_temperature;BME280_humidity;BME280_pressure;Samples;Min_cycle;Max_cycle;Signal;HPM_P1;HPM_P2
2022/09/13 01:42:40;;;;;;;20.00;18.63;;;15.30;99.90;;;;;;6080372;23;20419;31
2022/09/13 01:45:25;;;;;;;18.87;17.47;;;16.00;99.90;;;;;;4951697;28;20472;-78
2022/09/13 01:47:56;;;;;;;19.87;18.27;;;15.20;99.90;;;;;;4953430;28;20456;-77
2022/09/13 01:50:34;;;;;;;20.27;18.50;;;15.00;99.90;;;;;;4953242;28;20479;-77
2022/09/13 01:53:06;;;;;;;20.97;19.40;;;15.20;99.90;;;;;;4953143;28;20461;-77
2022/09/13 01:55:39;;;;;;;19.97;18.50;;;15.70;99.90;;;;;;4953171;28;20449;-77
2022/09/13 01:58:17;;;;;;;19.37;17.97;;;15.00;99.90;;;;;;4952944;28;20452;-77
2022/09/13 02:00:50;;;;;;;18.13;16.77;;;15.50;99.90;;;;;;4953460;28;20453;-76
2022/09/13 02:03:20;;;;;;;16.43;15.33;;;15.00;99.90;;;;;;4953242;28;20563;-77
2022/09/13 02:05:52;;;;;;;18.40;17.30;;;14.80;99.90;;;;;;4952986;28;20463;-77
2022/09/13 02:08:23;;;;;;;19.03;17.70;;;14.80;99.90;;;;;;4953039;28;20457;-77
2022/09/13 02:10:52;;;;;;;17.80;16.50;;;15.00;99.90;;;;;;4953055;28;20503;-77
2022/09/13 02:13:24;;;;;;;19.83;18.17;;;15.20;99.90;;;;;;4952855;29;20873;-77
2022/09/13 02:15:55;;;;;;;19.23;17.83;;;14.80;99.90;;;;;;4952728;28;20938;-77
2022/09/13 02:18:26;;;;;;;20.10;18.50;;;15.30;99.90;;;;;;4952786;28;20448;-77
2022/09/13 02:20:59;;;;;;;19.47;18.33;;;15.00;99.90;;;;;;4953001;28;20456;-77
2022/09/13 02:23:32;;;;;;;18.90;17.70;;;14.70;99.90;;;;;;4953041;28;20495;-77
2022/09/13 02:26:01;;;;;;;19.37;17.90;;;14.80;99.90;;;;;;4952740;28;20958;-78
2022/09/13 02:28:35;;;;;;;18.63;17.33;;;14.80;99.90;;;;;;4952884;28;20519;-77
2022/09/13 02:31:04;;;;;;;19.37;17.97;;;14.70;99.90;;;;;;4952599;28;20595;-77
2022/09/13 02:33:35;;;;;;;18.07;16.67;;;14.60;99.90;;;;;;4952687;28;20452;-79
2022/09/13 02:36:06;;;;;;;21.40;18.23;;;14.70;99.90;;;;;;4952620;28;20464;-78
2022/09/13 02:38:43;;;;;;;21.80;19.90;;;14.70;99.90;;;;;;4951389;28;20456;-78
2022/09/13 02:41:16;;;;;;;18.73;17.20;;;14.80;99.90;;;;;;4952817;28;20460;-77
2022/09/13 02:43:49;;;;;;;19.70;18.43;;;14.60;99.90;;;;;;4952434;28;20542;-77
2022/09/13 02:46:28;;;;;;;19.20;17.47;;;14.80;99.90;;;;;;4952592;28;20503;-76
2022/09/13 02:48:59;;;;;;;24.20;20.17;;;14.60;99.90;;;;;;4952595;28;20453;-75
2022/09/13 02:51:33;;;;;;;19.50;18.10;;;14.60;99.90;;;;;;4952545;28;20495;-76
2022/09/13 02:54:09;;;;;;;19.63;18.13;;;14.50;99.90;;;;;;4952807;28;20496;-76
2022/09/13 02:56:43;;;;;;;18.43;17.13;;;14.80;99.90;;;;;;4952709;28;20453;-76
2022/09/13 02:59:15;;;;;;;19.10;17.70;;;14.20;99.90;;;;;;4952790;29;20452;-77
2022/09/13 03:01:47;;;;;;;18.50;17.10;;;14.40;99.90;;;;;;4952404;29;20543;-77
2022/09/13 03:04:14;;;;;;;20.30;18.83;;;14.40;99.90;;;;;;4952186;28;20615;-77
2022/09/13 03:06:41;;;;;;;20.67;19.20;;;14.50;99.90;;;;;;4952389;28;20453;-77
2022/09/13 03:09:09;;;;;;;20.17;18.77;;;;;;;;;;4951983;28;20955;-76
2022/09/13 03:11:47;;;;;;;20.97;19.67;;;14.50;99.90;;;;;;4951840;28;20509;-77
2022/09/13 03:14:28;;;;;;;20.60;18.80;;;14.70;99.90;;;;;;4951701;28;20452;-76
2022/09/13 03:17:11;;;;;;;20.47;18.87;;;14.50;99.90;;;;;;4952037;28;20468;-76
2022/09/13 03:19:54;;;;;;;20.70;19.20;;;14.30;99.90;;;;;;4951715;28;20845;-76
2022/09/13 03:22:37;;;;;;;20.23;18.63;;;14.40;99.90;;;;;;4951632;28;20460;-75
2022/09/13 03:25:10;;;;;;;20.93;19.30;;;14.40;99.90;;;;;;4951441;28;20456;-76
2022/09/13 03:27:45;;;;;;;22.00;20.40;;;14.50;99.90;;;;;;4951329;28;20459;-76
2022/09/13 03:30:15;;;;;;;21.90;20.13;;;14.50;99.90;;;;;;4951690;28;20523;-76
2022/09/13 03:32:50;;;;;;;20.83;19.33;;;14.20;99.90;;;;;;4951353;28;20990;-76
2022/09/13 03:35:27;;;;;;;18.23;17.13;;;14.50;99.90;;;;;;4951087;28;20452;-75
2022/09/13 03:37:58;;;;;;;19.10;17.73;;;14.50;99.90;;;;;;4951369;28;20449;-75
2022/09/13 03:40:35;;;;;;;20.13;18.20;;;14.50;99.90;;;;;;4951324;28;20464;-75
2022/09/13 03:43:08;;;;;;;17.83;16.67;;;14.50;99.90;;;;;;4951116;28;20515;-76
2022/09/13 03:45:41;;;;;;;18.77;17.50;;;14.50;99.90;;;;;;4951261;29;20460;-76
2022/09/13 03:48:10;;;;;;;17.63;16.63;;;14.40;99.90;;;;;;4951304;28;20456;-77
2022/09/13 03:50:37;;;;;;;15.70;14.77;;;14.40;99.90;;;;;;4950976;28;20467;-76
2022/09/13 03:53:08;;;;;;;17.80;16.60;;;14.30;99.90;;;;;;4951089;28;20479;-75
2022/09/13 03:55:39;;;;;;;18.90;17.60;;;14.40;99.90;;;;;;4951164;28;20457;-76
2022/09/13 03:58:06;;;;;;;20.50;18.80;;;;;;;;;;4950902;28;20463;-79
2022/09/13 04:00:33;;;;;;;19.13;17.73;;;14.30;99.90;;;;;;4950903;28;20487;-78
2022/09/13 04:03:01;;;;;;;19.17;17.87;;;14.30;99.90;;;;;;4951045;28;20942;-79
2022/09/13 04:05:28;;;;;;;19.40;18.30;;;14.20;99.90;;;;;;4951090;28;20966;-76
2022/09/13 04:07:55;;;;;;;19.83;18.43;;;14.30;99.90;;;;;;4951176;28;20452;-76
2022/09/13 04:10:23;;;;;;;20.53;18.93;;;14.20;99.90;;;;;;4950866;28;20463;-76
2022/09/13 04:12:51;;;;;;;21.17;19.70;;;14.30;99.90;;;;;;4950564;28;20492;-76
2022/09/13 04:15:18;;;;;;;18.03;16.83;;;14.30;99.90;;;;;;4950781;29;20479;-75
2022/09/13 04:17:45;;;;;;;18.20;17.20;;;;;;;;;;4950767;28;20464;-76
2022/09/13 04:20:13;;;;;;;18.13;16.97;;;14.30;99.90;;;;;;4951000;28;20456;-76
2022/09/13 04:22:39;;;;;;;18.23;17.20;;;14.20;99.90;;;;;;4950978;29;20448;-76
2022/09/13 04:25:07;;;;;;;18.70;17.57;;;14.10;99.90;;;;;;4950588;29;20938;-75
2022/09/13 04:27:34;;;;;;;18.97;17.10;;;14.10;99.90;;;;;;4950385;28;20463;-76
2022/09/13 04:30:01;;;;;;;18.77;17.17;;;13.80;99.90;;;;;;4950868;28;20543;-76
2022/09/13 04:32:29;;;;;;;18.23;16.67;;;;;;;;;;4950434;28;20492;-76
2022/09/13 04:34:56;;;;;;;19.40;17.60;;;14.00;99.90;;;;;;4951089;28;20463;-75
2022/09/13 04:37:24;;;;;;;16.67;15.70;;;14.20;99.90;;;;;;4950455;28;20453;-76
2022/09/13 04:39:50;;;;;;;17.80;16.70;;;14.10;99.90;;;;;;4950575;28;20460;-75
2022/09/13 04:42:18;;;;;;;18.30;17.10;;;;;;;;;;4950074;28;20492;-75
2022/09/13 04:44:45;;;;;;;17.60;16.33;;;14.10;99.90;;;;;;4950199;28;20484;-76
2022/09/13 04:47:12;;;;;;;17.67;16.77;;;13.90;99.90;;;;;;4950551;28;20626;-76
2022/09/13 04:49:38;;;;;;;19.53;18.30;;;14.50;99.90;;;;;;4950383;28;20563;-76
2022/09/13 04:52:05;;;;;;;20.47;18.47;;;14.10;99.90;;;;;;4950215;28;20914;-76
2022/09/13 04:54:33;;;;;;;19.73;18.30;;;14.30;99.90;;;;;;4946727;29;20449;-77
2022/09/13 04:57:00;;;;;;;20.33;18.93;;;14.60;99.90;;;;;;4938646;29;20939;-76
2022/09/13 04:59:27;;;;;;;20.37;18.97;;;14.30;99.90;;;;;;4939029;28;20454;-75
2022/09/13 05:01:54;;;;;;;18.37;17.17;;;;;;;;;;4940646;28;20452;-75
2022/09/13 05:04:21;;;;;;;20.27;18.73;;;;;;;;;;4944489;28;20548;-75
2022/09/13 05:06:48;;;;;;;18.33;17.33;;;14.50;99.90;;;;;;4944399;29;20448;-74
2022/09/13 05:09:15;;;;;;;19.20;17.53;;;14.40;99.90;;;;;;4943790;29;20457;-76
2022/09/13 05:11:43;;;;;;;18.60;17.20;;;14.60;99.90;;;;;;4942815;28;20532;-76
2022/09/13 05:14:11;;;;;;;18.30;16.90;;;14.60;99.90;;;;;;4944400;28;20807;-76
2022/09/13 05:16:38;;;;;;;16.53;15.53;;;14.90;99.90;;;;;;4943815;29;20449;-74
2022/09/13 05:19:05;;;;;;;17.70;16.67;;;;;;;;;;4942119;28;20454;-76
2022/09/13 05:21:31;;;;;;;19.60;18.00;;;14.60;99.90;;;;;;4943610;28;20836;-75
2022/09/13 05:23:58;;;;;;;19.00;17.80;;;14.50;99.90;;;;;;4944097;28;20465;-75
2022/09/13 05:26:30;;;;;;;18.23;16.70;;;14.50;99.90;;;;;;4942479;29;20559;-76
2022/09/13 05:28:58;;;;;;;20.07;18.77;;;14.50;99.90;;;;;;4943054;28;20452;-76
2022/09/13 05:31:28;;;;;;;20.47;18.40;;;14.50;99.90;;;;;;4944461;28;20480;-76
2022/09/13 05:33:56;;;;;;;18.10;16.77;;;14.60;99.90;;;;;;4943654;28;20460;-75
2022/09/13 05:36:23;;;;;;;18.53;16.87;;;14.50;99.90;;;;;;4941956;29;20462;-75
2022/09/13 05:38:49;;;;;;;15.93;14.93;;;14.60;99.90;;;;;;4943500;28;20468;-75
2022/09/13 05:41:16;;;;;;;17.07;15.97;;;14.40;99.90;;;;;;4942728;29;20564;-75
2022/09/13 05:43:43;;;;;;;18.90;17.40;;;14.50;99.90;;;;;;4941746;28;20473;-75
2022/09/13 05:46:13;;;;;;;21.10;19.10;;;14.60;99.90;;;;;;4943284;28;20449;-76
2022/09/13 05:48:40;;;;;;;19.37;18.07;;;14.60;99.90;;;;;;4943427;28;20472;-73
2022/09/13 05:51:09;;;;;;;18.37;17.07;;;15.10;99.90;;;;;;4947855;28;20901;-76
2022/09/13 05:53:36;;;;;;;18.97;17.50;;;15.10;99.90;;;;;;4949074;28;20492;-77
2022/09/13 05:56:04;;;;;;;19.23;17.90;;;;;;;;;;4952906;28;20539;-77
2022/09/13 05:58:30;;;;;;;15.90;14.60;;;14.80;99.90;;;;;;4952715;29;20456;-78
2022/09/13 06:00:58;;;;;;;17.47;16.10;;;14.80;99.90;;;;;;4952901;28;20448;-77
2022/09/13 06:03:26;;;;;;;18.43;17.00;;;14.90;99.90;;;;;;4953262;28;20456;-78
2022/09/13 06:05:56;;;;;;;18.30;16.70;;;14.90;99.90;;;;;;4952458;28;20464;-78
2022/09/13 06:08:23;;;;;;;20.90;19.20;;;15.60;99.90;;;;;;4952910;28;20460;-78
2022/09/13 06:10:57;;;;;;;20.00;18.23;;;14.90;99.90;;;;;;4952517;28;20834;-77
2022/09/13 06:13:24;;;;;;;19.80;18.40;;;15.10;99.90;;;;;;4952429;28;21044;-76
2022/09/13 06:15:51;;;;;;;18.60;17.47;;;15.40;99.90;;;;;;4952480;28;20453;-76
2022/09/13 06:18:18;;;;;;;19.00;17.67;;;15.90;99.90;;;;;;4949699;28;20816;-75
2022/09/13 06:20:47;;;;;;;17.93;16.70;;;15.80;99.90;;;;;;4952405;28;20463;-75
2022/09/13 06:23:14;;;;;;;18.60;17.50;;;16.00;99.90;;;;;;4952226;28;20570;-76
2022/09/13 06:25:41;;;;;;;19.00;17.00;;;15.80;99.90;;;;;;4952621;28;20456;-76
2022/09/13 06:28:09;;;;;;;18.50;17.10;;;16.30;99.90;;;;;;4952828;28;20464;-77
2022/09/13 06:30:35;;;;;;;20.40;18.30;;;16.20;99.90;;;;;;4952521;28;20540;-77
2022/09/13 06:33:03;;;;;;;18.23;16.57;;;16.30;99.90;;;;;;4952086;29;20503;-76
2022/09/13 06:35:29;;;;;;;19.47;17.83;;;15.80;99.90;;;;;;4952404;28;20456;-76
2022/09/13 06:37:58;;;;;;;17.13;15.63;;;15.90;99.90;;;;;;4951974;28;20463;-76
2022/09/13 06:40:25;;;;;;;17.33;16.30;;;16.00;99.90;;;;;;4951773;28;20492;-76
2022/09/13 06:42:52;;;;;;;19.00;17.27;;;16.30;99.90;;;;;;4952835;28;20492;-74
2022/09/13 06:45:18;;;;;;;19.33;17.67;;;15.70;99.90;;;;;;4952293;28;20543;-76
2022/09/13 06:47:45;;;;;;;17.33;16.23;;;16.00;99.90;;;;;;4951308;28;20540;-76
2022/09/13 06:50:12;;;;;;;18.20;16.80;;;16.00;99.90;;;;;;4951912;28;20457;-74
2022/09/13 06:52:39;;;;;;;18.57;17.07;;;16.60;99.90;;;;;;4952020;28;20959;-77
2022/09/13 06:55:08;;;;;;;15.87;14.90;;;16.50;99.90;;;;;;4951861;28;20457;-78
2022/09/13 06:57:35;;;;;;;17.17;15.87;;;17.00;99.90;;;;;;4951394;28;21202;-77
2022/09/13 07:00:02;;;;;;;17.27;16.23;;;17.50;99.90;;;;;;4951640;28;20472;-77
2022/09/13 07:02:28;;;;;;;17.30;16.07;;;17.10;99.90;;;;;;4953692;28;20563;-77
2022/09/13 07:04:55;;;;;;;16.00;15.10;;;18.10;99.90;;;;;;4951588;28;20542;-77
2022/09/13 07:07:22;;;;;;;15.70;14.70;;;17.60;99.90;;;;;;4945705;28;20460;-77
2022/09/13 07:09:48;;;;;;;14.00;13.30;;;17.50;99.90;;;;;;4952106;28;20813;-77
2022/09/13 07:12:16;;;;;;;15.20;14.40;;;18.30;99.90;;;;;;4951557;28;20496;-78
2022/09/13 07:14:43;;;;;;;15.40;14.50;;;18.20;99.90;;;;;;4952120;28;20527;-79
2022/09/13 07:17:10;;;;;;;15.07;14.27;;;19.10;99.90;;;;;;4952465;28;20452;-78
2022/09/13 07:19:36;;;;;;;14.20;13.30;;;19.30;99.90;;;;;;4951645;28;20457;-78
2022/09/13 07:22:03;;;;;;;17.00;16.00;;;18.80;99.90;;;;;;4951663;28;20897;-78
2022/09/13 07:24:30;;;;;;;15.80;14.73;;;18.50;99.90;;;;;;4951020;28;20557;-77
2022/09/13 07:26:57;;;;;;;15.10;14.30;;;18.60;99.90;;;;;;4952130;28;20453;-77
2022/09/13 07:29:25;;;;;;;15.30;14.50;;;18.40;99.90;;;;;;4951966;28;20456;-77
2022/09/13 07:31:54;;;;;;;14.83;13.93;;;18.30;99.90;;;;;;4951472;28;20472;-78
2022/09/13 07:34:22;;;;;;;14.93;13.93;;;18.70;99.90;;;;;;4951463;28;20568;-78
2022/09/13 07:36:49;;;;;;;15.60;14.80;;;18.20;99.90;;;;;;4951218;28;20452;-78
2022/09/13 07:39:17;;;;;;;14.83;13.90;;;18.00;99.90;;;;;;4951078;28;20467;-76
2022/09/13 07:41:45;;;;;;;13.63;13.03;;;18.00;99.90;;;;;;4951220;28;20498;-77
2022/09/13 07:44:12;;;;;;;14.80;14.10;;;18.50;99.90;;;;;;4951606;28;20489;-78
2022/09/13 07:46:42;;;;;;;14.63;13.87;;;19.30;99.90;;;;;;4951480;28;20453;-77
2022/09/13 07:49:09;;;;;;;15.07;14.13;;;19.10;99.90;;;;;;4951320;28;20453;-76
2022/09/13 07:51:38;;;;;;;14.67;13.47;;;19.10;99.90;;;;;;4952223;28;20461;-76
2022/09/13 07:54:07;;;;;;;14.80;13.80;;;19.30;99.90;;;;;;4951421;28;20489;-80
2022/09/13 07:56:35;;;;;;;13.00;12.40;;;19.60;99.90;;;;;;4952503;28;20460;-78
2022/09/13 07:59:04;;;;;;;14.53;13.63;;;20.10;99.90;;;;;;4951507;28;20445;-77
2022/09/13 08:01:36;;;;;;;15.20;14.23;;;20.80;99.90;;;;;;4953387;28;20460;-77
2022/09/13 08:04:05;;;;;;;15.83;14.80;;;21.30;99.90;;;;;;4946919;29;20571;-77
2022/09/13 08:06:34;;;;;;;15.37;13.90;;;21.80;99.90;;;;;;4941875;28;20445;-77
2022/09/13 08:09:01;;;;;;;13.80;12.97;;;22.10;99.90;;;;;;4939746;29;20452;-78
2022/09/13 08:11:30;;;;;;;13.17;12.57;;;22.10;99.90;;;;;;4937143;28;20919;-77
2022/09/13 08:13:58;;;;;;;13.80;13.13;;;22.10;99.90;;;;;;4943226;28;20520;-78
2022/09/13 08:16:26;;;;;;;12.90;12.20;;;22.20;99.90;;;;;;4938357;28;20978;-77
2022/09/13 08:18:55;;;;;;;15.07;14.33;;;22.30;99.90;;;;;;4931891;29;20457;-78
2022/09/13 08:21:24;;;;;;;15.30;14.50;;;22.40;99.90;;;;;;4931675;29;20464;-77
2022/09/13 08:23:55;;;;;;;13.90;13.13;;;22.50;99.90;;;;;;4931926;29;20472;-75
2022/09/13 08:26:22;;;;;;;14.47;13.80;;;22.50;99.90;;;;;;4931745;29;20540;-77
2022/09/13 08:28:49;;;;;;;13.97;13.27;;;22.60;99.90;;;;;;4931113;29;20460;-76
2022/09/13 08:31:18;;;;;;;14.17;13.60;;;22.40;99.90;;;;;;4931955;29;20461;-79
2022/09/13 08:33:47;;;;;;;14.67;14.07;;;22.40;99.90;;;;;;4931668;29;20900;-77
2022/09/13 08:36:15;;;;;;;13.60;13.00;;;22.30;99.90;;;;;;4930952;29;20878;-78
2022/09/13 08:38:47;;;;;;;14.50;13.90;;;22.40;99.90;;;;;;4932276;29;20476;-77
2022/09/13 08:41:38;;;;;;;15.33;14.50;;;22.50;99.90;;;;;;4931902;29;20521;-78
2022/09/13 08:44:10;;;;;;;15.17;14.27;;;22.60;99.90;;;;;;4909348;29;20485;-77
2022/09/13 08:46:41;;;;;;;15.10;14.20;;;22.90;99.90;;;;;;4932784;29;20458;-76
2022/09/13 08:49:13;;;;;;;13.37;12.67;;;23.60;99.90;;;;;;4931263;29;20453;-77
2022/09/13 08:54:29;;;;;;;14.70;14.00;;;24.30;99.90;;;;;;4916928;29;21023;-78
2022/09/13 08:57:02;;;;;;;14.50;13.90;;;24.50;99.90;;;;;;4931236;29;20457;-77
2022/09/13 08:59:50;;;;;;;14.47;13.73;;;24.20;99.90;;;;;;4931099;29;20541;-76
2022/09/13 09:02:28;;;;;;;14.97;13.90;;;24.10;99.90;;;;;;4931026;29;20461;-78
2022/09/13 09:05:00;;;;;;;15.17;14.37;;;24.00;99.90;;;;;;4931165;29;20452;-77
2022/09/13 09:07:32;;;;;;;15.07;13.97;;;24.60;99.90;;;;;;4931067;29;20464;-76
2022/09/13 09:10:05;;;;;;;14.07;13.07;;;24.40;99.00;;;;;;4932484;29;20939;-77
2022/09/13 09:12:37;;;;;;;13.20;12.23;;;24.30;99.50;;;;;;4932226;29;20801;-77
2022/09/13 09:15:13;;;;;;;13.60;12.90;;;24.20;99.80;;;;;;4930809;29;20473;-78
2022/09/13 09:17:47;;;;;;;13.47;12.97;;;24.60;99.10;;;;;;4929344;29;20471;-76
2022/09/13 09:20:25;;;;;;;13.33;12.83;;;26.00;96.20;;;;;;4930861;29;20472;-77
2022/09/13 09:22:54;;;;;;;13.50;12.80;;;26.90;94.10;;;;;;4930789;29;20963;-76
2022/09/13 09:25:25;;;;;;;14.00;13.30;;;26.60;94.00;;;;;;4930932;29;20457;-76
2022/09/13 09:27:52;;;;;;;13.67;13.07;;;26.10;94.50;;;;;;4930715;29;20476;-78
2022/09/13 09:30:19;;;;;;;12.83;12.30;;;26.10;95.00;;;;;;4930699;29;20703;-78
2022/09/13 09:33:01;;;;;;;13.63;13.03;;;26.50;94.60;;;;;;4931080;29;20508;-78
2022/09/13 09:35:45;;;;;;;14.63;13.53;;;27.20;93.00;;;;;;4931143;29;20469;-78
2022/09/13 09:38:31;;;;;;;13.97;13.37;;;27.90;91.10;;;;;;4931486;29;20548;-77
2022/09/13 09:41:04;;;;;;;14.20;13.60;;;29.50;99.90;;;;;;4931379;29;21014;-77
2022/09/13 09:43:38;;;;;;;15.20;14.27;;;29.60;85.60;;;;;;4929241;29;20520;-77
2022/09/13 09:46:07;;;;;;;14.53;13.70;;;30.00;81.40;;;;;;4931345;29;20450;-77
2022/09/13 09:48:41;;;;;;;13.87;13.20;;;30.20;81.00;;;;;;4932911;29;20453;-77
2022/09/13 09:51:10;;;;;;;14.30;13.70;;;30.40;78.50;;;;;;4934811;29;20453;-76
2022/09/13 09:53:42;;;;;;;13.83;13.13;;;31.70;76.60;;;;;;4934745;29;20893;-78
2022/09/13 09:56:23;;;;;;;12.90;12.40;;;33.10;69.70;;;;;;4934839;29;20553;-79
2022/09/13 09:58:50;;;;;;;15.37;14.67;;;33.30;65.00;;;;;;4934520;29;20909;-76
2022/09/13 10:01:22;;;;;;;16.20;14.80;;;32.90;69.30;;;;;;4934384;29;20453;-77
2022/09/13 10:03:54;;;;;;;15.93;14.87;;;32.50;69.10;;;;;;4935932;29;20521;-78
2022/09/13 10:06:24;;;;;;;14.77;14.10;;;32.00;67.90;;;;;;4936569;29;20490;-77
2022/09/13 10:08:58;;;;;;;15.47;14.70;;;32.20;68.90;;;;;;4934914;29;20567;-78
2022/09/13 10:11:39;;;;;;;14.90;14.30;;;32.20;69.60;;;;;;4934860;29;20535;-77
2022/09/13 10:14:05;;;;;;;14.87;14.27;;;32.70;67.70;;;;;;4934453;29;20754;-79
2022/09/13 10:16:32;;;;;;;15.00;14.30;;;33.10;67.80;;;;;;4934063;29;20483;-77
2022/09/13 10:19:23;;;;;;;14.70;14.10;;;33.70;92.30;;;;;;4935037;29;20464;-77
2022/09/13 10:22:04;;;;;;;14.80;14.20;;;33.90;61.10;;;;;;4934033;29;20449;-78
2022/09/13 10:24:32;;;;;;;15.57;14.60;;;34.10;94.00;;;;;;4934356;29;20612;-78
2022/09/13 10:27:02;;;;;;;13.97;13.50;;;34.40;63.10;;;;;;4934363;29;20453;-78
2022/09/13 10:29:30;;;;;;;15.60;14.47;;;35.80;68.20;;;;;;4933619;29;20837;-77
2022/09/13 10:32:00;;;;;;;17.83;16.13;;;38.10;88.20;;;;;;4934112;29;20442;-78
2022/09/13 10:34:30;;;;;;;15.40;14.17;;;38.40;71.50;;;;;;4934047;29;20497;-77
2022/09/13 10:37:01;;;;;;;16.13;14.97;;;37.00;66.70;;;;;;4934104;29;20453;-77
2022/09/13 10:39:30;;;;;;;14.77;13.97;;;37.40;64.40;;;;;;4933641;29;20460;-76
2022/09/13 10:42:01;;;;;;;14.77;14.03;;;38.80;55.50;;;;;;4933610;29;20497;-76
2022/09/13 10:44:34;;;;;;;14.93;14.33;;;39.60;52.60;;;;;;4933472;29;20484;-75
2022/09/13 10:47:04;;;;;;;15.90;14.80;;;40.10;50.50;;;;;;4934980;29;20461;-84
2022/09/13 10:49:39;;;;;;;14.43;13.73;;;37.70;52.10;;;;;;4934040;29;20457;-83
2022/09/13 10:52:24;;;;;;;15.07;14.40;;;38.80;52.50;;;;;;4933920;29;20479;-83
2022/09/13 10:54:51;;;;;;;14.03;13.53;;;37.50;51.60;;;;;;4934080;29;20493;-83
2022/09/13 10:57:36;;;;;;;14.50;14.00;;;37.10;49.40;;;;;;4933749;29;20821;-81
2022/09/13 11:00:07;;;;;;;14.37;13.77;;;37.30;48.60;;;;;;4932982;29;20823;-76
2022/09/13 11:02:49;;;;;;;14.10;13.60;;;37.70;46.50;;;;;;4933879;29;20453;-78
2022/09/13 11:05:25;;;;;;;15.17;14.67;;;38.80;47.20;;;;;;4934040;29;20460;-83
2022/09/13 11:08:18;;;;;;;14.60;13.97;;;38.70;43.30;;;;;;4933554;29;20449;-85
2022/09/13 11:10:55;;;;;;;14.00;13.50;;;38.90;39.80;;;;;;4933793;29;20453;-81
2022/09/13 11:13:31;;;;;;;15.07;14.47;;;39.20;42.10;;;;;;4933899;29;20488;-88
2022/09/13 11:16:21;;;;;;;14.33;13.83;;;40.10;41.70;;;;;;4933363;29;20476;-80
2022/09/13 11:19:05;;;;;;;15.40;14.70;;;39.70;41.00;;;;;;4932487;29;20727;-79
2022/09/13 11:21:46;;;;;;;14.97;14.47;;;38.90;37.10;;;;;;4930853;29;20453;-80
2022/09/13 11:24:46;;;;;;;13.90;13.40;;;37.60;44.20;;;;;;4932736;29;20457;-79
2022/09/13 11:27:23;;;;;;;13.30;12.80;;;35.30;42.40;;;;;;4932794;29;20465;-80
2022/09/13 11:30:09;;;;;;;12.60;12.10;;;35.90;47.00;;;;;;4932241;29;20731;-81
2022/09/13 11:33:09;;;;;;;13.97;13.47;;;36.50;45.50;;;;;;4931879;29;20457;-79
2022/09/13 11:35:58;;;;;;;14.57;14.07;;;36.70;40.90;;;;;;4932131;29;20455;-81
2022/09/13 11:38:41;;;;;;;15.00;14.40;;;36.60;44.20;;;;;;4932224;29;20457;-80
2022/09/13 11:41:15;;;;;;;14.70;14.20;;;36.30;75.70;;;;;;4931749;29;20453;-80
2022/09/13 11:43:56;;;;;;;14.93;14.33;;;36.90;44.20;;;;;;4931903;29;20568;-80
2022/09/13 11:46:31;;;;;;;13.60;13.00;;;37.00;44.40;;;;;;4931873;29;20452;-77
2022/09/13 11:49:41;;;;;;;15.03;14.43;;;36.20;44.60;;;;;;4931732;29;20453;-77
2022/09/13 11:52:15;;;;;;;13.40;12.90;;;35.50;41.40;;;;;;4928633;29;20488;-80
2022/09/13 11:54:54;;;;;;;14.70;14.10;;;35.40;44.60;;;;;;4929678;29;20536;-80
2022/09/13 11:57:26;;;;;;;14.60;14.03;;;35.80;44.40;;;;;;4931680;29;20488;-80
2022/09/13 11:59:58;;;;;;;14.70;14.20;;;35.80;42.40;;;;;;4931791;29;20548;-79
2022/09/13 12:02:29;;;;;;;14.37;13.83;;;36.40;42.60;;;;;;4931666;29;20805;-80
2022/09/13 12:05:04;;;;;;;15.67;14.83;;;36.50;42.20;;;;;;4930436;29;20476;-78
2022/09/13 12:07:37;;;;;;;14.70;14.20;;;36.10;72.00;;;;;;4931970;29;20555;-79
2022/09/13 12:10:13;;;;;;;15.00;14.30;;;36.80;41.60;;;;;;4931990;29;20457;-80
2022/09/13 12:12:41;;;;;;;14.77;14.17;;;35.40;41.10;;;;;;4932182;29;20509;-80
2022/09/13 12:15:16;;;;;;;14.00;13.50;;;34.90;61.10;;;;;;4931686;29;20552;-79
2022/09/13 12:17:47;;;;;;;14.23;13.83;;;35.30;40.70;;;;;;4931931;29;20479;-79
2022/09/13 12:20:33;;;;;;;14.27;13.70;;;35.20;40.70;;;;;;4931413;29;20457;-81
2022/09/13 12:23:02;;;;;;;14.00;13.37;;;35.70;39.20;;;;;;4931539;29;20456;-81
2022/09/13 12:25:40;;;;;;;14.63;14.20;;;35.80;38.50;;;;;;4931448;29;20457;-79
2022/09/13 12:28:16;;;;;;;14.97;14.37;;;36.00;68.50;;;;;;4931184;29;20461;-79
2022/09/13 12:30:49;;;;;;;14.37;13.87;;;36.70;38.10;;;;;;4931125;29;20536;-80
2022/09/13 12:33:17;;;;;;;14.20;13.70;;;36.20;37.70;;;;;;4930913;29;20814;-80
2022/09/13 12:35:54;;;;;;;15.03;14.43;;;35.70;38.40;;;;;;4931022;29;20464;-81
2022/09/13 12:38:41;;;;;;;13.23;12.80;;;35.50;38.10;;;;;;4930657;29;20499;-80
2022/09/13 12:41:22;;;;;;;15.13;14.30;;;36.00;66.10;;;;;;4930781;29;20457;-80
2022/09/13 12:44:27;;;;;;;14.07;13.47;;;36.90;38.00;;;;;;4930425;29;20979;-80
2022/09/13 12:47:20;;;;;;;13.57;13.07;;;36.60;33.70;;;;;;4914411;29;20508;-81
2022/09/13 12:50:10;;;;;;;13.17;12.77;;;37.70;33.70;;;;;;4930688;29;20457;-80
2022/09/13 12:52:44;;;;;;;13.70;13.30;;;37.90;32.70;;;;;;4930623;29;21018;-83
2022/09/13 12:55:38;;;;;;;14.83;14.27;;;38.60;36.50;;;;;;4931139;29;20869;-84
2022/09/13 12:58:22;;;;;;;13.80;13.40;;;39.20;31.00;;;;;;4930683;29;20566;-83
2022/09/13 13:01:04;;;;;;;14.30;13.90;;;40.20;34.80;;;;;;4930359;29;20560;-84
2022/09/13 13:03:34;;;;;;;14.00;13.60;;;40.00;34.60;;;;;;4930599;29;20466;-83
2022/09/13 13:06:10;;;;;;;13.30;12.90;;;39.40;34.70;;;;;;4930798;29;20465;-84
2022/09/13 13:08:39;;;;;;;13.93;13.33;;;38.70;34.20;;;;;;4930928;29;20464;-84
2022/09/13 13:11:09;;;;;;;14.17;13.67;;;38.00;34.60;;;;;;4933383;29;20484;-81
2022/09/13 13:13:38;;;;;;;13.57;13.17;;;35.90;66.50;;;;;;4931316;29;20840;-83
2022/09/13 13:19:29;;;;;;;13.30;12.90;;;36.00;34.40;;;;;;4928975;29;20536;-86
2022/09/13 13:22:34;;;;;;;13.67;13.07;;;34.90;39.00;;;;;;4931390;29;20548;-85
2022/09/13 13:25:31;;;;;;;13.27;12.77;;;34.60;35.20;;;;;;4934399;29;20489;-84
2022/09/13 13:27:58;;;;;;;12.47;12.07;;;34.80;38.20;;;;;;4934618;29;20462;-83
2022/09/13 13:30:51;;;;;;;11.60;11.20;;;35.30;38.30;;;;;;4934819;29;20457;-83
2022/09/13 13:33:21;;;;;;;13.00;12.60;;;35.90;35.00;;;;;;4934085;29;20701;-86
2022/09/13 13:35:48;;;;;;;13.00;12.60;;;35.30;35.20;;;;;;4934423;29;20813;-82
2022/09/13 13:38:34;;;;;;;12.20;11.80;;;35.40;37.00;;;;;;4934703;29;20465;-83
2022/09/13 13:41:40;;;;;;;12.50;12.10;;;34.30;58.00;;;;;;4936053;29;20457;-82
2022/09/13 13:44:46;;;;;;;12.60;12.00;;;34.30;33.40;;;;;;4935677;29;20500;-83
2022/09/13 13:47:42;;;;;;;12.17;11.87;;;34.10;33.40;;;;;;4934407;29;20974;-84
2022/09/13 13:50:15;;;;;;;12.60;12.20;;;33.80;32.40;;;;;;4934357;29;20449;-85
2022/09/13 13:52:54;;;;;;;13.30;12.70;;;34.00;38.60;;;;;;4934674;29;20465;-87
2022/09/13 13:55:32;;;;;;;13.00;12.53;;;34.10;40.20;;;;;;4934330;29;20468;-85
2022/09/13 13:58:03;;;;;;;12.33;11.90;;;34.60;40.50;;;;;;4934447;29;20552;-85
2022/09/13 14:00:33;;;;;;;12.30;11.90;;;34.70;40.00;;;;;;4934148;29;20952;-83
2022/09/13 14:03:15;;;;;;;13.63;13.13;;;33.80;45.40;;;;;;4934036;29;20796;-86
2022/09/13 14:05:51;;;;;;;13.13;12.73;;;33.90;40.00;;;;;;4933901;29;20488;-85
2022/09/13 14:08:37;;;;;;;13.73;13.00;;;34.10;39.20;;;;;;4933779;29;20453;-85
2022/09/13 14:11:15;;;;;;;13.23;12.73;;;33.80;37.30;;;;;;4933757;29;20858;-85
2022/09/13 14:14:00;;;;;;;11.90;11.50;;;34.50;37.20;;;;;;4944448;28;20827;-85
2022/09/13 14:16:42;;;;;;;12.77;12.13;;;33.80;33.50;;;;;;4944165;28;20451;-86
2022/09/13 14:19:22;;;;;;;13.73;13.23;;;33.80;32.40;;;;;;4943673;28;20453;-85
2022/09/13 14:22:06;;;;;;;12.30;11.90;;;33.40;36.90;;;;;;4943047;29;20450;-83
2022/09/13 14:24:37;;;;;;;13.17;12.77;;;33.80;37.20;;;;;;4943318;28;20489;-82
2022/09/13 14:27:04;;;;;;;11.33;10.90;;;33.90;38.10;;;;;;4943924;28;20453;-80
2022/09/13 14:29:32;;;;;;;12.40;11.70;;;33.70;38.90;;;;;;4946037;28;20456;-80
2022/09/13 14:32:03;;;;;;;12.93;12.50;;;33.60;39.90;;;;;;4942267;29;20457;-80
2022/09/13 14:34:32;;;;;;;12.97;12.40;;;33.00;38.80;;;;;;4944012;28;20900;-84
2022/09/13 14:37:02;;;;;;;14.93;14.00;;;33.40;40.50;;;;;;4947329;28;20446;-81
2022/09/13 14:39:29;;;;;;;13.83;13.17;;;33.20;39.70;;;;;;4942957;28;20449;-82
2022/09/13 14:42:01;;;;;;;12.60;12.20;;;33.70;40.50;;;;;;4942617;28;20592;-81
2022/09/13 14:44:28;;;;;;;12.27;11.87;;;34.00;41.10;;;;;;4947166;29;20902;-82
2022/09/13 14:47:05;;;;;;;13.00;12.50;;;34.00;41.80;;;;;;4943428;28;20458;-83